Time;durP1;ratioP1;P1;durP2;ratioP2;P2;SDS_P1;SDS_P2;PMS_P1;PMS_P2;Temp;Humidity;BMP_temperature;BMP_pressure;BME280_temperature;BME280_humidity;BME280_pressure;Samples;Min_cycle;Max_cycle;Signal;HPM_P1;HPM_P2
2021/03/08 00:00:20;;;;;;;22.23;7.82;;;4.50;91.70;;;;;;5032452;28;20069;-69
2021/03/08 00:02:46;;;;;;;23.48;9.25;;;4.60;91.60;;;;;;5031685;28;20057;-68
2021/03/08 00:05:13;;;;;;;23.30;8.85;;;4.60;91.60;;;;;;5031745;28;20038;-69
2021/03/08 00:07:39;;;;;;;25.85;9.40;;;4.70;91.60;;;;;;5031977;28;20456;-69
2021/03/08 00:10:05;;;;;;;19.48;7.13;;;4.60;91.70;;;;;;5032141;28;20041;-69
2021/03/08 00:12:32;;;;;;;23.95;6.65;;;4.70;91.70;;;;;;5031711;28;20431;-69
2021/03/08 00:14:58;;;;;;;15.57;5.97;;;4.70;91.60;;;;;;5031043;28;20045;-69
2021/03/08 00:17:24;;;;;;;21.23;6.40;;;4.70;91.50;;;;;;5032322;28;20037;-69
2021/03/08 00:19:50;;;;;;;17.77;4.35;;;4.80;91.50;;;;;;5031626;28;20052;-69
2021/03/08 00:22:15;;;;;;;15.77;4.63;;;4.80;91.40;;;;;;5031732;28;20572;-69
2021/03/08 00:24:41;;;;;;;17.40;3.83;;;4.80;91.50;;;;;;5031523;28;20049;-69
2021/03/08 00:27:07;;;;;;;12.00;3.28;;;4.80;91.40;;;;;;5031798;28;20355;-69
2021/03/08 00:29:32;;;;;;;12.82;3.33;;;4.80;91.40;;;;;;5031363;28;20394;-69
2021/03/08 00:32:01;;;;;;;13.32;3.28;;;4.80;91.40;;;;;;5032080;28;20092;-69
2021/03/08 00:34:27;;;;;;;10.52;3.30;;;4.80;91.20;;;;;;5031210;28;20041;-69
2021/03/08 00:36:53;;;;;;;16.38;3.85;;;4.80;91.20;;;;;;5031715;28;20080;-69
2021/03/08 00:39:19;;;;;;;13.23;4.10;;;4.80;91.20;;;;;;5031591;28;20038;-69
2021/03/08 00:41:45;;;;;;;15.38;3.92;;;4.80;91.10;;;;;;5031693;28;20033;-69
2021/03/08 00:44:10;;;;;;;12.95;3.08;;;4.80;91.10;;;;;;5031084;28;20044;-69
2021/03/08 00:46:36;;;;;;;11.88;3.30;;;4.80;91.20;;;;;;5031217;28;20061;-69
2021/03/08 00:49:03;;;;;;;11.00;3.08;;;4.80;91.20;;;;;;5031239;28;20033;-69
2021/03/08 00:51:28;;;;;;;13.07;3.40;;;4.80;91.30;;;;;;5031251;28;20041;-69
2021/03/08 00:53:54;;;;;;;13.65;3.00;;;4.80;91.20;;;;;;5031246;28;20050;-69
2021/03/08 00:56:20;;;;;;;11.05;3.03;;;4.80;91.20;;;;;;5031368;28;20076;-69
2021/03/08 00:58:46;;;;;;;14.52;3.83;;;4.80;91.20;;;;;;5030981;28;20073;-69
2021/03/08 01:01:12;;;;;;;15.70;4.45;;;4.80;91.20;;;;;;5030952;28;20037;-69
2021/03/08 01:03:37;;;;;;;12.50;3.20;;;4.80;91.20;;;;;;5029560;28;20067;-69
2021/03/08 01:06:06;;;;;;;10.82;3.40;;;4.80;91.30;;;;;;5030875;28;20037;-69
2021/03/08 01:08:31;;;;;;;10.23;3.85;;;4.80;91.30;;;;;;5031150;28;20049;-69
2021/03/08 01:10:57;;;;;;;9.55;3.00;;;4.80;91.20;;;;;;5031181;28;20462;-69
2021/03/08 01:13:23;;;;;;;19.08;4.18;;;4.80;91.30;;;;;;5030675;28;20083;-69
2021/03/08 01:15:52;;;;;;;15.85;3.75;;;4.70;91.20;;;;;;5030724;28;20182;-69
2021/03/08 01:18:19;;;;;;;9.77;3.17;;;4.70;91.20;;;;;;5030672;28;20034;-69
2021/03/08 01:20:45;;;;;;;15.25;3.22;;;4.80;91.20;;;;;;5031112;28;20069;-69
2021/03/08 01:23:14;;;;;;;11.02;3.33;;;4.70;91.20;;;;;;5030429;28;20044;-69
2021/03/08 01:25:40;;;;;;;12.43;4.25;;;4.70;91.20;;;;;;5030495;28;20034;-69
2021/03/08 01:28:08;;;;;;;10.20;3.50;;;4.70;91.30;;;;;;5030995;28;20098;-69
2021/03/08 01:30:43;;;;;;;13.18;3.78;;;4.70;91.30;;;;;;5030978;28;20037;-69
2021/03/08 01:33:09;;;;;;;12.43;3.22;;;4.70;91.30;;;;;;5030223;28;20120;-69
2021/03/08 01:35:36;;;;;;;13.93;3.75;;;4.70;91.30;;;;;;5030684;28;20042;-69
2021/03/08 01:38:03;;;;;;;13.73;3.63;;;4.70;91.20;;;;;;5030499;28;20045;-69
2021/03/08 01:40:34;;;;;;;15.93;3.83;;;4.70;91.20;;;;;;5030317;28;20382;-69
2021/03/08 01:43:00;;;;;;;16.55;3.20;;;4.70;91.30;;;;;;5030125;28;20076;-69
2021/03/08 01:45:28;;;;;;;10.95;3.30;;;4.60;91.30;;;;;;5030574;28;20077;-69
2021/03/08 01:47:54;;;;;;;11.63;3.30;;;4.70;91.30;;;;;;5030353;28;20033;-69
2021/03/08 01:50:35;;;;;;;14.43;4.40;;;4.70;91.30;;;;;;5030395;28;20078;-69
2021/03/08 01:53:02;;;;;;;13.38;3.33;;;4.70;91.30;;;;;;5030148;28;20045;-69
2021/03/08 01:55:28;;;;;;;15.57;3.55;;;4.60;91.60;;;;;;5030581;28;20045;-69
2021/03/08 01:57:54;;;;;;;16.00;3.83;;;4.60;91.40;;;;;;5030148;28;20042;-69
2021/03/08 02:00:22;;;;;;;15.23;4.03;;;4.60;91.50;;;;;;5030145;28;20042;-69
2021/03/08 02:02:48;;;;;;;15.88;3.63;;;4.60;91.50;;;;;;5029776;28;20065;-69
2021/03/08 02:05:15;;;;;;;15.98;3.97;;;4.60;91.50;;;;;;5029936;28;20461;-69
2021/03/08 02:07:41;;;;;;;17.17;4.40;;;4.60;91.50;;;;;;5030217;28;20038;-69
2021/03/08 02:10:09;;;;;;;14.32;3.35;;;4.60;91.50;;;;;;5033344;28;20038;-69
2021/03/08 02:12:41;;;;;;;18.48;3.88;;;4.60;91.40;;;;;;5033148;28;20037;-69
2021/03/08 02:15:20;;;;;;;9.52;3.33;;;4.60;91.50;;;;;;5033467;28;20050;-69
2021/03/08 02:18:03;;;;;;;10.60;3.63;;;4.50;91.80;;;;;;5033396;28;20409;-69
2021/03/08 02:20:53;;;;;;;15.43;3.67;;;4.50;91.70;;;;;;5033690;28;20094;-69
2021/03/08 02:23:56;;;;;;;13.38;3.83;;;4.50;91.60;;;;;;5033648;28;20080;-69
2021/03/08 02:26:40;;;;;;;13.27;3.38;;;4.50;91.70;;;;;;5033716;28;20132;-69
2021/03/08 02:29:26;;;;;;;16.45;4.03;;;4.50;91.70;;;;;;5033428;28;20041;-69
2021/03/08 02:31:55;;;;;;;15.50;3.90;;;4.50;91.80;;;;;;5033418;28;20041;-69
2021/03/08 02:34:27;;;;;;;16.95;3.83;;;4.40;91.70;;;;;;5033379;28;20041;-69
2021/03/08 02:37:11;;;;;;;19.10;4.35;;;4.40;91.80;;;;;;5033174;28;20473;-69
2021/03/08 02:39:44;;;;;;;12.63;4.35;;;4.40;91.70;;;;;;5033529;28;20049;-69
2021/03/08 02:42:16;;;;;;;17.42;5.03;;;4.40;91.80;;;;;;5032629;28;20049;-69
2021/03/08 02:44:43;;;;;;;15.65;4.32;;;4.40;91.80;;;;;;5032998;28;20053;-69
2021/03/08 02:47:11;;;;;;;24.95;4.93;;;4.50;91.80;;;;;;5033395;28;20048;-69
2021/03/08 02:49:40;;;;;;;35.72;7.32;;;4.50;91.80;;;;;;5033688;28;20116;-69
2021/03/08 02:52:10;;;;;;;14.75;4.55;;;4.50;91.80;;;;;;5032888;28;20041;-69
2021/03/08 02:54:43;;;;;;;18.80;5.75;;;4.50;92.00;;;;;;5032974;28;20049;-69
2021/03/08 02:57:10;;;;;;;15.75;5.32;;;4.40;91.90;;;;;;5032859;28;20037;-69
2021/03/08 02:59:40;;;;;;;22.13;5.32;;;4.40;91.90;;;;;;5033397;28;20056;-69
2021/03/08 03:02:08;;;;;;;15.25;4.65;;;4.40;91.90;;;;;;5032895;28;20429;-69
2021/03/08 03:04:37;;;;;;;21.90;4.10;;;4.40;91.80;;;;;;5032464;28;20044;-69
2021/03/08 03:07:05;;;;;;;17.13;4.32;;;4.30;91.50;;;;;;5032605;28;20045;-69
2021/03/08 03:09:33;;;;;;;19.50;4.32;;;4.30;91.30;;;;;;5032890;28;20041;-69
2021/03/08 03:12:00;;;;;;;15.43;4.25;;;4.30;91.30;;;;;;5033022;28;20089;-69
2021/03/08 03:14:27;;;;;;;19.25;4.13;;;4.30;91.60;;;;;;5033030;28;20454;-69
2021/03/08 03:17:04;;;;;;;14.02;4.20;;;4.40;91.40;;;;;;5032527;28;20372;-69
2021/03/08 03:19:33;;;;;;;20.40;6.28;;;4.40;91.40;;;;;;5032546;28;20466;-69
2021/03/08 03:22:01;;;;;;;16.88;4.82;;;4.40;91.30;;;;;;5032411;28;20375;-69
2021/03/08 03:24:29;;;;;;;12.70;4.30;;;4.40;91.30;;;;;;5032649;28;20042;-69
2021/03/08 03:26:56;;;;;;;21.55;5.55;;;4.50;91.30;;;;;;5032796;28;20037;-69
2021/03/08 03:29:23;;;;;;;13.77;5.00;;;4.40;91.40;;;;;;5032339;28;20048;-69
2021/03/08 03:31:50;;;;;;;21.73;5.28;;;4.40;91.40;;;;;;5032215;28;20044;-69
2021/03/08 03:34:17;;;;;;;23.17;6.80;;;4.40;91.40;;;;;;5032550;28;20076;-69
2021/03/08 03:36:46;;;;;;;19.17;5.82;;;4.50;91.30;;;;;;5032140;28;20044;-69
2021/03/08 03:39:12;;;;;;;15.57;4.85;;;4.50;91.30;;;;;;5032345;28;20086;-69
2021/03/08 03:41:39;;;;;;;20.23;5.57;;;4.40;91.30;;;;;;5031767;28;20053;-69
2021/03/08 03:44:07;;;;;;;20.75;6.18;;;4.40;91.40;;;;;;5032070;28;20377;-69
2021/03/08 03:46:40;;;;;;;17.10;4.55;;;4.50;91.50;;;;;;5032244;28;20037;-69
2021/03/08 03:49:06;;;;;;;14.18;4.97;;;4.50;91.50;;;;;;5032346;28;20489;-69
2021/03/08 03:51:31;;;;;;;14.25;5.65;;;4.50;91.50;;;;;;5032379;28;20079;-69
2021/03/08 03:53:57;;;;;;;20.98;5.55;;;4.50;91.50;;;;;;5031700;28;20037;-69
2021/03/08 03:56:27;;;;;;;21.27;5.43;;;4.50;91.50;;;;;;5031820;28;20046;-69
2021/03/08 03:58:58;;;;;;;16.33;5.38;;;4.50;91.60;;;;;;5032020;28;20136;-69
2021/03/08 04:01:32;;;;;;;19.02;4.93;;;4.50;91.60;;;;;;5032088;28;20090;-69
2021/03/08 04:04:08;;;;;;;;;;;4.50;91.60;;;;;;5032544;28;20045;-69
2021/03/08 04:06:54;;;;;;;20.90;4.55;;;4.40;91.90;;;;;;5031798;28;19917;-69
2021/03/08 04:09:21;;;;;;;19.00;5.50;;;4.40;91.80;;;;;;5031805;28;20077;-69
2021/03/08 04:11:53;;;;;;;21.20;4.97;;;4.40;91.70;;;;;;5030945;28;20048;-69
2021/03/08 04:14:22;;;;;;;23.35;5.63;;;4.40;91.70;;;;;;5031666;28;20037;-69
2021/03/08 04:16:51;;;;;;;15.70;5.22;;;4.40;91.80;;;;;;5031649;28;20041;-69
2021/03/08 04:19:20;;;;;;;26.38;6.10;;;4.40;91.80;;;;;;5032227;28;20054;-69
2021/03/08 04:21:47;;;;;;;17.60;5.68;;;4.40;91.80;;;;;;5031614;28;20037;-69
2021/03/08 04:24:14;;;;;;;17.23;4.75;;;4.40;91.80;;;;;;5030399;28;20053;-69
2021/03/08 04:26:40;;;;;;;16.70;5.30;;;4.40;91.80;;;;;;5031755;28;20522;-69
2021/03/08 04:29:06;;;;;;;17.63;5.72;;;4.40;91.80;;;;;;5031696;28;20098;-69
2021/03/08 04:31:33;;;;;;;18.02;4.22;;;4.40;91.80;;;;;;5030498;28;20034;-69
2021/03/08 04:34:01;;;;;;;13.57;4.72;;;4.40;91.80;;;;;;5031359;28;20042;-69
2021/03/08 04:36:28;;;;;;;18.85;5.10;;;4.40;91.80;;;;;;5031366;28;20091;-69
2021/03/08 04:38:54;;;;;;;20.10;5.15;;;4.40;92.10;;;;;;5031305;28;20065;-69
2021/03/08 04:41:21;;;;;;;15.60;4.85;;;4.40;91.80;;;;;;5031639;28;20078;-69
2021/03/08 04:43:47;;;;;;;12.70;4.63;;;4.40;91.70;;;;;;5031143;28;20052;-69
2021/03/08 04:46:14;;;;;;;16.00;4.55;;;4.50;91.80;;;;;;5030877;28;20049;-69
2021/03/08 04:48:40;;;;;;;19.13;5.85;;;4.50;91.80;;;;;;5031222;28;20465;-69
2021/03/08 04:51:07;;;;;;;20.70;4.75;;;4.50;91.70;;;;;;5031294;28;20064;-69
2021/03/08 04:53:35;;;;;;;15.75;4.80;;;4.50;91.70;;;;;;5031094;28;20435;-69
2021/03/08 04:56:02;;;;;;;16.02;4.20;;;4.50;91.70;;;;;;5030956;28;20499;-69
2021/03/08 04:58:32;;;;;;;19.33;5.18;;;4.50;91.80;;;;;;5031382;28;20033;-69
2021/03/08 05:00:58;;;;;;;16.83;4.78;;;4.50;91.70;;;;;;5030915;28;20034;-69
2021/03/08 05:03:28;;;;;;;12.05;4.70;;;4.50;91.70;;;;;;5029419;28;20595;-69
2021/03/08 05:06:00;;;;;;;18.90;5.57;;;4.50;91.70;;;;;;5030640;28;20060;-69
2021/03/08 05:08:28;;;;;;;15.98;4.80;;;4.50;91.70;;;;;;5031640;28;20037;-69
2021/03/08 05:10:55;;;;;;;11.95;4.80;;;4.50;92.00;;;;;;5031035;28;20041;-69
2021/03/08 05:13:23;;;;;;;16.15;4.68;;;4.40;91.70;;;;;;5030877;28;20095;-69
2021/03/08 05:15:52;;;;;;;13.25;4.35;;;4.40;91.70;;;;;;5031152;28;20038;-69
2021/03/08 05:18:19;;;;;;;17.77;5.38;;;4.30;91.70;;;;;;5030936;28;20038;-69
2021/03/08 05:20:47;;;;;;;16.77;4.65;;;4.30;91.80;;;;;;5030673;28;20034;-69
2021/03/08 05:23:13;;;;;;;19.30;5.25;;;4.30;91.90;;;;;;5030575;28;20041;-69
2021/03/08 05:25:39;;;;;;;11.73;4.25;;;4.30;91.80;;;;;;5031098;28;20162;-69
2021/03/08 05:28:08;;;;;;;22.10;6.15;;;4.30;91.80;;;;;;5031303;28;20038;-69
2021/03/08 05:30:34;;;;;;;14.55;5.20;;;4.30;91.70;;;;;;5030876;28;20038;-69
2021/03/08 05:33:19;;;;;;;18.13;4.60;;;4.30;91.70;;;;;;5030123;28;20042;-68
2021/03/08 05:35:49;;;;;;;13.85;5.05;;;4.20;91.70;;;;;;5031083;28;20041;-69
2021/03/08 05:38:16;;;;;;;18.42;5.00;;;4.20;91.60;;;;;;5031282;28;20042;-68
2021/03/08 05:41:05;;;;;;;16.00;4.60;;;4.10;91.60;;;;;;5031090;28;20045;-68
2021/03/08 05:43:35;;;;;;;26.00;6.10;;;4.10;91.60;;;;;;5030382;28;20392;-68
2021/03/08 05:46:16;;;;;;;16.42;4.82;;;4.20;91.70;;;;;;5030551;28;20080;-69
2021/03/08 05:49:05;;;;;;;18.67;4.78;;;4.10;91.70;;;;;;5030934;28;20462;-69
2021/03/08 05:51:58;;;;;;;23.60;6.15;;;4.10;91.70;;;;;;5039973;28;20042;-69
2021/03/08 05:54:32;;;;;;;17.15;5.93;;;4.10;91.90;;;;;;5030611;28;20163;-68
2021/03/08 05:57:16;;;;;;;14.93;4.57;;;4.00;91.90;;;;;;5030371;28;20113;-68
2021/03/08 06:00:03;;;;;;;17.85;5.78;;;4.00;91.80;;;;;;5030292;28;20064;-68
2021/03/08 06:02:54;;;;;;;23.60;5.82;;;4.00;91.80;;;;;;5030022;28;20045;-68
2021/03/08 06:06:21;;;;;;;17.08;4.95;;;4.00;91.80;;;;;;5029703;28;20048;-68
2021/03/08 06:09:19;;;;;;;19.58;5.70;;;4.00;91.80;;;;;;5030689;28;20038;-69
2021/03/08 06:11:51;;;;;;;18.58;4.57;;;3.90;91.80;;;;;;5030057;28;20071;-68
2021/03/08 06:14:22;;;;;;;18.73;4.95;;;3.90;91.70;;;;;;5028505;28;20060;-69
2021/03/08 06:16:49;;;;;;;14.02;4.90;;;4.00;91.70;;;;;;5029712;28;20448;-68
2021/03/08 06:19:16;;;;;;;14.40;5.18;;;4.00;91.60;;;;;;5030174;28;20044;-69
2021/03/08 06:21:42;;;;;;;22.50;6.53;;;4.00;91.50;;;;;;5030131;28;20549;-69
2021/03/08 06:24:11;;;;;;;18.52;6.20;;;4.00;91.50;;;;;;5029427;28;20132;-68
2021/03/08 06:26:38;;;;;;;20.98;6.55;;;4.10;91.40;;;;;;5029610;28;20044;-69
2021/03/08 06:29:07;;;;;;;16.20;5.85;;;4.00;91.30;;;;;;5030018;28;20042;-68
2021/03/08 06:31:36;;;;;;;18.42;6.13;;;4.10;91.30;;;;;;5029934;28;20064;-69
2021/03/08 06:34:02;;;;;;;15.93;5.82;;;4.00;91.30;;;;;;5029537;28;20132;-68
2021/03/08 06:36:31;;;;;;;14.93;4.88;;;4.00;91.30;;;;;;5029297;28;20223;-71
2021/03/08 06:38:57;;;;;;;16.05;6.38;;;4.00;91.10;;;;;;5027966;28;20068;-71
2021/03/08 06:41:22;;;;;;;11.65;5.40;;;4.00;91.10;;;;;;5027708;28;20477;-71
2021/03/08 06:43:48;;;;;;;17.10;6.28;;;3.90;91.00;;;;;;5027434;28;20038;-71
2021/03/08 06:46:15;;;;;;;20.25;6.82;;;3.90;91.20;;;;;;5027488;28;20045;-71
2021/03/08 06:48:42;;;;;;;15.68;6.25;;;3.80;91.40;;;;;;5027458;28;20041;-71
2021/03/08 06:51:13;;;;;;;23.10;7.32;;;3.80;91.70;;;;;;5026374;28;20485;-71
2021/03/08 06:53:39;;;;;;;18.92;7.55;;;3.80;91.80;;;;;;5028492;28;20044;-71
2021/03/08 06:56:25;;;;;;;18.85;7.80;;;3.80;91.80;;;;;;5032978;28;20076;-71
2021/03/08 06:59:12;;;;;;;24.67;7.95;;;3.90;92.10;;;;;;5033592;28;20038;-71
2021/03/08 07:01:40;;;;;;;25.30;8.40;;;4.00;92.00;;;;;;5033514;28;20044;-71
2021/03/08 07:04:16;;;;;;;21.10;7.85;;;4.10;92.00;;;;;;5032642;28;20433;-71
2021/03/08 07:06:43;;;;;;;27.15;8.98;;;4.20;92.00;;;;;;5032974;28;20044;-71
2021/03/08 07:09:10;;;;;;;29.38;8.05;;;4.30;91.70;;;;;;5033344;28;20473;-71
2021/03/08 07:11:36;;;;;;;19.55;7.35;;;4.40;91.50;;;;;;5033139;28;20041;-71
2021/03/08 07:14:02;;;;;;;14.50;5.07;;;4.50;91.20;;;;;;5031070;28;20038;-71
2021/03/08 07:16:38;;;;;;;15.77;4.90;;;4.60;90.80;;;;;;5032395;28;20095;-71
2021/03/08 07:19:06;;;;;;;19.30;4.55;;;4.80;89.50;;;;;;5031647;28;20029;-71
2021/03/08 07:21:32;;;;;;;20.80;3.83;;;4.80;88.60;;;;;;5033095;28;20486;-71
2021/03/08 07:24:12;;;;;;;17.40;3.85;;;4.90;87.30;;;;;;5032272;28;20042;-71
2021/03/08 07:26:51;;;;;;;21.08;3.92;;;5.00;85.80;;;;;;5032394;28;20042;-71
2021/03/08 07:29:17;;;;;;;11.48;3.20;;;5.00;85.20;;;;;;5032848;28;20069;-70
2021/03/08 07:31:49;;;;;;;16.10;5.78;;;5.00;84.10;;;;;;5032553;28;20072;-71
2021/03/08 07:34:15;;;;;;;10.90;3.17;;;5.10;83.60;;;;;;5032344;28;20091;-71
2021/03/08 07:36:43;;;;;;;11.32;3.40;;;5.20;82.70;;;;;;5032742;28;20507;-71
2021/03/08 07:39:13;;;;;;;9.23;2.80;;;5.20;82.20;;;;;;5032732;28;20041;-71
2021/03/08 07:41:51;;;;;;;16.80;3.70;;;5.30;82.00;;;;;;5032117;28;20049;-71
2021/03/08 07:44:19;;;;;;;14.07;3.63;;;5.30;81.50;;;;;;5031942;28;20049;-71
2021/03/08 07:46:45;;;;;;;11.85;3.10;;;5.40;81.20;;;;;;5032009;28;20037;-71
2021/03/08 07:49:11;;;;;;;15.27;3.20;;;5.50;81.30;;;;;;5032496;28;20074;-71
2021/03/08 07:51:36;;;;;;;12.43;3.03;;;5.70;80.90;;;;;;5032194;28;20056;-71
2021/03/08 07:54:03;;;;;;;12.60;3.08;;;5.70;80.80;;;;;;5031777;28;20041;-71
2021/03/08 07:56:30;;;;;;;9.43;2.85;;;5.80;80.00;;;;;;5030801;28;20078;-71
2021/03/08 07:58:56;;;;;;;16.67;4.68;;;5.80;78.40;;;;;;5032063;28;20116;-71
2021/03/08 08:01:23;;;;;;;17.00;4.55;;;5.80;79.00;;;;;;5032547;28;20038;-71
2021/03/08 08:03:49;;;;;;;7.63;3.88;;;5.90;79.60;;;;;;5031636;28;20037;-71
2021/03/08 08:06:20;;;;;;;18.73;3.78;;;6.00;79.50;;;;;;5031072;28;20051;-71
2021/03/08 08:08:48;;;;;;;8.85;3.03;;;6.10;79.00;;;;;;5032083;28;20037;-71
2021/03/08 08:11:16;;;;;;;15.93;2.97;;;6.00;77.80;;;;;;5032114;28;20041;-71
2021/03/08 08:13:48;;;;;;;16.15;3.50;;;6.10;77.60;;;;;;5031557;28;20041;-72
2021/03/08 08:16:17;;;;;;;16.45;3.88;;;6.20;78.20;;;;;;5031495;28;20049;-72
2021/03/08 08:18:44;;;;;;;10.98;3.75;;;6.30;77.80;;;;;;5032095;28;20124;-72
2021/03/08 08:21:18;;;;;;;14.35;3.10;;;6.40;77.90;;;;;;5031407;28;20142;-72
2021/03/08 08:23:46;;;;;;;13.27;2.25;;;6.30;74.90;;;;;;5031606;28;20122;-72
2021/03/08 08:26:15;;;;;;;12.93;3.05;;;6.40;76.40;;;;;;5031973;28;20048;-72
2021/03/08 08:28:44;;;;;;;15.77;3.38;;;6.60;77.00;;;;;;5031955;28;20416;-72
2021/03/08 08:31:10;;;;;;;18.60;2.88;;;6.60;75.80;;;;;;5031358;28;20393;-72
2021/03/08 08:33:36;;;;;;;16.13;4.03;;;6.60;75.50;;;;;;5031002;28;20120;-72
2021/03/08 08:36:27;;;;;;;14.98;3.88;;;6.60;74.60;;;;;;5031416;28;20496;-72
2021/03/08 08:38:53;;;;;;;13.20;4.03;;;6.70;74.50;;;;;;5031682;28;20049;-72
2021/03/08 08:41:27;;;;;;;14.32;3.97;;;6.70;74.10;;;;;;5031488;28;20038;-72
2021/03/08 08:44:19;;;;;;;10.93;3.13;;;6.80;74.30;;;;;;5031164;28;20045;-72
2021/03/08 08:46:46;;;;;;;16.83;3.40;;;6.90;72.20;;;;;;5033340;27;20512;-72
2021/03/08 08:49:20;;;;;;;16.63;3.85;;;6.90;72.10;;;;;;5031836;28;20045;-72
2021/03/08 08:51:54;;;;;;;14.07;2.72;;;6.90;72.40;;;;;;5031747;28;20041;-72
2021/03/08 08:54:32;;;;;;;17.90;3.40;;;6.80;71.70;;;;;;5030755;28;20045;-72
2021/03/08 08:57:07;;;;;;;17.13;3.83;;;6.80;73.40;;;;;;5031125;28;20090;-72
2021/03/08 08:59:35;;;;;;;12.98;3.53;;;6.90;72.90;;;;;;5030714;28;20049;-72
2021/03/08 09:02:18;;;;;;;15.68;4.00;;;7.00;73.40;;;;;;5030873;28;20038;-72
2021/03/08 09:04:44;;;;;;;19.88;3.13;;;7.10;72.50;;;;;;5030567;28;20044;-72
2021/03/08 09:07:20;;;;;;;16.05;4.07;;;7.10;72.10;;;;;;5030806;28;20478;-72
2021/03/08 09:09:46;;;;;;;15.65;4.20;;;6.90;71.90;;;;;;5031096;28;20034;-72
2021/03/08 09:12:26;;;;;;;13.43;4.32;;;6.80;72.80;;;;;;5031066;28;20120;-72
2021/03/08 09:14:55;;;;;;;18.83;3.75;;;6.80;72.90;;;;;;5031534;28;20087;-72
2021/03/08 09:17:22;;;;;;;9.52;2.78;;;6.80;73.20;;;;;;5030718;28;20034;-72
2021/03/08 09:19:56;;;;;;;14.07;4.15;;;6.70;73.00;;;;;;5030768;28;20045;-72
2021/03/08 09:22:22;;;;;;;13.27;2.83;;;6.60;72.00;;;;;;5030702;28;20470;-73
2021/03/08 09:24:55;;;;;;;15.65;3.53;;;6.50;72.60;;;;;;5030868;28;20041;-72
2021/03/08 09:27:31;;;;;;;9.75;2.70;;;6.60;72.40;;;;;;5030833;28;20059;-71
2021/03/08 09:30:02;;;;;;;12.98;3.25;;;6.50;70.80;;;;;;5030447;28;20038;-72
2021/03/08 09:32:28;;;;;;;15.88;3.65;;;6.40;73.00;;;;;;5030361;28;20041;-73
2021/03/08 09:35:00;;;;;;;12.30;2.92;;;6.50;71.80;;;;;;5030791;28;20082;-72
2021/03/08 09:37:26;;;;;;;24.08;3.70;;;6.50;73.20;;;;;;5030973;28;20038;-72
2021/03/08 09:39:54;;;;;;;9.90;3.65;;;6.50;73.40;;;;;;5031338;28;20149;-72
2021/03/08 09:42:20;;;;;;;16.20;3.30;;;6.50;72.50;;;;;;5030603;28;20114;-73
2021/03/08 09:44:47;;;;;;;16.90;3.55;;;6.50;73.00;;;;;;5030469;28;20041;-72
2021/03/08 09:47:14;;;;;;;18.63;3.60;;;6.40;72.00;;;;;;5030657;28;20044;-72
2021/03/08 09:49:46;;;;;;;7.70;2.88;;;6.30;71.80;;;;;;5030584;28;20041;-72
2021/03/08 09:52:12;;;;;;;11.40;3.00;;;6.40;73.10;;;;;;5029955;28;20044;-72
2021/03/08 09:54:47;;;;;;;11.50;2.97;;;6.40;73.40;;;;;;5030677;28;20124;-72
2021/03/08 09:57:31;;;;;;;10.02;2.58;;;6.50;73.00;;;;;;5029431;28;20474;-71
2021/03/08 09:59:57;;;;;;;15.23;3.83;;;6.50;71.20;;;;;;5030604;28;20090;-71
2021/03/08 10:02:25;;;;;;;13.30;3.90;;;6.60;72.30;;;;;;5030472;28;20048;-72
2021/03/08 10:04:57;;;;;;;10.35;3.25;;;6.70;72.30;;;;;;5029940;28;20087;-72
2021/03/08 10:07:24;;;;;;;9.70;2.80;;;6.70;71.60;;;;;;5030178;28;20423;-72
2021/03/08 10:10:12;;;;;;;13.68;3.05;;;6.70;69.60;;;;;;5030195;28;20040;-72
2021/03/08 10:12:38;;;;;;;14.80;4.63;;;6.70;69.50;;;;;;5030013;28;20038;-72
2021/03/08 10:15:07;;;;;;;7.82;2.83;;;6.70;69.70;;;;;;5029884;28;20046;-72
2021/03/08 10:17:35;;;;;;;13.50;3.28;;;6.60;67.50;;;;;;5029639;28;20087;-71
2021/03/08 10:20:04;;;;;;;14.45;3.92;;;6.70;69.50;;;;;;5029324;28;20397;-72
2021/03/08 10:22:37;;;;;;;10.68;2.42;;;6.70;69.90;;;;;;5029766;28;20045;-73
2021/03/08 10:25:21;;;;;;;14.57;3.45;;;6.80;68.20;;;;;;5029111;28;20045;-72
2021/03/08 10:28:05;;;;;;;9.52;2.72;;;6.80;69.20;;;;;;5030374;28;20061;-72
2021/03/08 10:30:33;;;;;;;10.63;2.83;;;6.80;67.40;;;;;;5032709;28;20044;-72
2021/03/08 10:33:07;;;;;;;14.00;2.78;;;6.90;69.30;;;;;;5032842;28;20133;-72
2021/03/08 10:35:39;;;;;;;11.23;3.60;;;6.90;67.30;;;;;;5033160;28;20071;-72
2021/03/08 10:38:06;;;;;;;10.48;3.05;;;6.80;67.50;;;;;;5033805;28;20033;-72
2021/03/08 10:40:32;;;;;;;11.45;3.53;;;6.80;67.00;;;;;;5033704;28;20053;-72
2021/03/08 10:42:59;;;;;;;12.55;3.08;;;6.80;66.10;;;;;;5032904;28;20084;-72
2021/03/08 10:45:26;;;;;;;7.18;2.63;;;6.80;66.60;;;;;;5032996;28;20041;-72
2021/03/08 10:48:05;;;;;;;7.47;2.50;;;6.80;65.50;;;;;;5031875;28;20436;-71
2021/03/08 10:50:58;;;;;;;10.60;2.78;;;6.90;66.60;;;;;;5033592;28;20122;-72
2021/03/08 10:53:24;;;;;;;11.77;3.13;;;7.00;67.00;;;;;;5033273;28;20053;-72
2021/03/08 10:55:52;;;;;;;10.27;2.70;;;7.10;67.00;;;;;;5033063;28;20542;-72
2021/03/08 10:58:33;;;;;;;9.90;2.33;;;7.10;67.30;;;;;;5033297;28;20428;-72
2021/03/08 11:01:09;;;;;;;10.32;3.40;;;7.20;67.60;;;;;;5032714;28;20065;-72
2021/03/08 11:03:40;;;;;;;14.07;3.10;;;7.20;66.60;;;;;;5032813;28;20497;-72
2021/03/08 11:06:08;;;;;;;18.83;3.35;;;7.10;65.00;;;;;;5032943;28;20042;-72
2021/03/08 11:08:37;;;;;;;10.95;3.25;;;7.00;65.40;;;;;;5032898;28;20060;-72
2021/03/08 11:11:14;;;;;;;9.10;2.47;;;7.10;67.10;;;;;;5033246;28;20041;-72
2021/03/08 11:13:39;;;;;;;12.50;2.92;;;7.20;66.50;;;;;;5032495;28;20041;-72
2021/03/08 11:16:10;;;;;;;8.82;2.42;;;7.20;65.90;;;;;;5032641;28;20048;-71
2021/03/08 11:18:36;;;;;;;7.75;2.30;;;7.20;66.50;;;;;;5033095;28;20486;-71
2021/03/08 11:21:20;;;;;;;7.90;2.80;;;7.20;66.10;;;;;;5032305;28;20076;-71
2021/03/08 11:23:47;;;;;;;7.63;2.40;;;7.10;64.60;;;;;;5032176;28;20046;-71
2021/03/08 11:26:12;;;;;;;7.60;2.80;;;7.10;65.50;;;;;;5032700;28;20049;-71
2021/03/08 11:28:39;;;;;;;9.90;2.47;;;7.10;66.20;;;;;;5032144;28;20041;-71
2021/03/08 11:31:05;;;;;;;9.88;2.88;;;7.20;66.80;;;;;;5032688;28;20061;-71
2021/03/08 11:33:37;;;;;;;12.50;2.92;;;7.30;66.80;;;;;;5032074;28;20084;-71
2021/03/08 11:36:03;;;;;;;8.93;2.15;;;7.30;66.60;;;;;;5032879;28;20124;-70
2021/03/08 11:38:30;;;;;;;11.23;3.75;;;7.40;66.40;;;;;;5031418;28;20129;-69
2021/03/08 11:40:57;;;;;;;8.63;2.35;;;7.70;63.70;;;;;;5031573;28;20049;-70
2021/03/08 11:43:25;;;;;;;10.48;2.92;;;7.90;62.40;;;;;;5031003;28;20056;-70
2021/03/08 11:45:51;;;;;;;10.40;2.53;;;8.20;61.90;;;;;;5032004;28;20041;-69
2021/03/08 11:48:23;;;;;;;9.90;2.10;;;8.30;62.90;;;;;;5032428;28;20482;-69
2021/03/08 11:50:49;;;;;;;9.65;2.42;;;8.40;61.50;;;;;;5032671;28;20042;-69
2021/03/08 11:53:15;;;;;;;8.48;1.73;;;8.40;60.10;;;;;;5031981;28;20051;-69
2021/03/08 11:55:40;;;;;;;5.80;1.80;;;8.60;60.00;;;;;;5031089;28;20042;-69
2021/03/08 11:58:06;;;;;;;8.88;2.10;;;8.70;59.00;;;;;;5031826;28;20071;-69
2021/03/08 12:00:32;;;;;;;3.92;1.58;;;8.80;59.20;;;;;;5032234;28;20045;-69
2021/03/08 12:02:58;;;;;;;8.23;2.45;;;8.80;59.60;;;;;;5031647;28;20091;-70
2021/03/08 12:05:24;;;;;;;8.48;2.15;;;8.90;59.80;;;;;;5031483;28;20041;-69
2021/03/08 12:07:50;;;;;;;8.27;2.38;;;8.80;61.00;;;;;;5032765;28;20041;-69
2021/03/08 12:10:16;;;;;;;9.73;2.45;;;8.90;61.60;;;;;;5032279;28;20044;-69
2021/03/08 12:12:42;;;;;;;7.32;2.10;;;8.90;60.50;;;;;;5031730;28;20090;-70
2021/03/08 12:15:11;;;;;;;6.75;2.55;;;8.90;62.20;;;;;;5031728;28;20054;-69
2021/03/08 12:17:37;;;;;;;10.88;2.28;;;8.90;62.40;;;;;;5031964;28;20045;-69
2021/03/08 12:20:05;;;;;;;13.05;3.60;;;9.00;63.20;;;;;;5032537;28;20079;-70
2021/03/08 12:22:31;;;;;;;11.20;2.70;;;8.90;63.30;;;;;;5030227;28;20095;-70
2021/03/08 12:24:57;;;;;;;9.10;3.28;;;8.80;62.80;;;;;;5031207;28;20045;-69
2021/03/08 12:27:23;;;;;;;12.13;2.75;;;8.80;63.60;;;;;;5031941;28;20098;-69
2021/03/08 12:29:48;;;;;;;10.18;2.55;;;8.80;65.20;;;;;;5031400;28;20477;-69
2021/03/08 12:32:14;;;;;;;9.50;2.92;;;8.80;64.80;;;;;;5031203;28;20040;-69
2021/03/08 12:34:40;;;;;;;8.82;2.53;;;8.80;65.10;;;;;;5031885;28;20046;-69
2021/03/08 12:37:05;;;;;;;9.07;2.33;;;8.70;65.00;;;;;;5031688;28;20048;-69
2021/03/08 12:39:31;;;;;;;15.60;3.78;;;8.70;64.40;;;;;;5031146;28;20041;-69
2021/03/08 12:41:57;;;;;;;7.55;2.40;;;8.70;65.20;;;;;;5030147;28;20037;-69
2021/03/08 12:44:23;;;;;;;14.07;2.47;;;8.60;65.00;;;;;;5031099;28;20042;-69
2021/03/08 12:46:49;;;;;;;9.30;2.55;;;8.60;65.00;;;;;;5031663;28;20049;-69
2021/03/08 12:49:15;;;;;;;8.20;3.47;;;8.60;65.90;;;;;;5031571;28;20042;-69
2021/03/08 12:51:41;;;;;;;9.07;2.67;;;8.50;65.20;;;;;;5030439;28;20037;-69
2021/03/08 12:54:07;;;;;;;11.02;2.78;;;8.40;65.10;;;;;;5030482;28;20046;-69
2021/03/08 12:56:33;;;;;;;4.30;1.92;;;8.40;64.50;;;;;;5030108;28;20130;-69
2021/03/08 12:58:58;;;;;;;9.15;2.70;;;8.30;65.10;;;;;;5031217;28;20068;-69
2021/03/08 13:01:24;;;;;;;13.60;2.80;;;8.40;65.20;;;;;;5031100;28;20055;-69